createdAt,value
2019-06-08T00:00:51.982Z,1.43
2019-06-08T00:03:22.717Z,1.47
2019-06-08T00:05:52.476Z,1.80
2019-06-08T00:08:24.036Z,1.50
2019-06-08T00:10:53.300Z,1.60
2019-06-08T00:13:24.579Z,1.47
2019-06-08T00:15:54.176Z,1.40
2019-06-08T00:18:23.777Z,1.20
2019-06-08T00:20:54.472Z,1.40
2019-06-08T00:23:24.054Z,1.47
2019-06-08T00:25:53.743Z,1.40
2019-06-08T00:28:24.709Z,1.53
2019-06-08T00:30:54.491Z,1.67
2019-06-08T00:33:24.823Z,1.33
2019-06-08T00:35:54.486Z,1.47
2019-06-08T00:38:25.134Z,1.40
2019-06-08T00:40:54.850Z,1.37
2019-06-08T00:43:25.508Z,1.63
2019-06-08T00:45:55.237Z,1.50
2019-06-08T00:48:24.835Z,1.30
2019-06-08T00:50:54.428Z,1.30
2019-06-08T00:53:25.315Z,1.27
2019-06-08T00:55:55.064Z,1.40
2019-06-08T00:58:24.725Z,1.50
2019-06-08T01:00:54.409Z,1.43
2019-06-08T01:03:24.146Z,1.40
2019-06-08T01:05:53.743Z,1.17
2019-06-08T01:08:23.906Z,1.50
2019-06-08T01:10:54.830Z,1.30
2019-06-08T01:13:26.876Z,1.30
2019-06-08T01:15:57.679Z,1.20
2019-06-08T01:18:27.443Z,1.43
2019-06-08T01:20:57.070Z,1.40
2019-06-08T01:23:27.895Z,1.20
2019-06-08T01:25:57.654Z,0.93
2019-06-08T01:28:28.326Z,1.30
2019-06-08T01:30:57.923Z,1.00
2019-06-08T01:33:28.713Z,1.40
2019-06-08T01:35:58.460Z,1.10
2019-06-08T01:38:29.151Z,1.13
2019-06-08T01:40:58.830Z,0.97
2019-06-08T01:43:29.592Z,0.83
2019-06-08T01:45:59.302Z,1.00
2019-06-08T01:48:30.186Z,0.80
2019-06-08T01:50:59.916Z,1.00
2019-06-08T01:53:31.063Z,1.00
2019-06-08T01:56:00.831Z,1.20
2019-06-08T01:58:31.420Z,1.10
2019-06-08T02:01:01.289Z,1.13
2019-06-08T02:03:32.645Z,1.10
2019-06-08T02:06:02.308Z,1.27
2019-06-08T02:08:32.665Z,1.23
2019-06-08T02:11:02.673Z,0.93
2019-06-08T02:13:33.098Z,0.90
2019-06-08T02:16:02.846Z,1.10
2019-06-08T02:18:40.072Z,1.07
2019-06-08T02:21:03.673Z,1.20
2019-06-08T02:23:33.401Z,0.80
2019-06-08T02:26:03.026Z,0.90
2019-06-08T02:28:33.616Z,1.10
2019-06-08T02:31:03.348Z,1.10
2019-06-08T02:33:34.919Z,1.17
2019-06-08T02:36:04.417Z,0.97
2019-06-08T02:38:34.645Z,1.10
2019-06-08T02:41:05.873Z,1.40
2019-06-08T02:43:36.234Z,1.30
2019-06-08T02:46:06.884Z,1.23
2019-06-08T02:48:59.553Z,1.07
2019-06-08T02:51:08.040Z,1.00
2019-06-08T02:53:38.700Z,1.10
2019-06-08T02:56:10.391Z,1.13
2019-06-08T02:58:42.215Z,1.23
2019-06-08T03:01:12.023Z,1.00
2019-06-08T03:03:42.044Z,1.10
2019-06-08T03:06:14.523Z,1.27
2019-06-08T03:08:46.454Z,1.20
2019-06-08T03:11:18.081Z,1.20
2019-06-08T03:13:48.819Z,1.00
2019-06-08T03:16:18.425Z,1.10
2019-06-08T03:18:48.002Z,0.90
2019-06-08T03:21:17.594Z,1.10
2019-06-08T03:23:47.191Z,1.00
2019-06-08T03:26:16.791Z,1.10
2019-06-08T03:28:46.368Z,1.20
2019-06-08T03:31:15.941Z,1.43
2019-06-08T03:33:53.244Z,1.50
2019-06-08T03:36:16.805Z,3.27
2019-06-08T03:38:47.318Z,1.83
2019-06-08T03:41:16.906Z,2.00
2019-06-08T03:43:46.559Z,2.23
2019-06-08T03:46:16.313Z,1.80
2019-06-08T03:48:46.497Z,1.83
2019-06-08T03:51:16.346Z,1.93
2019-06-08T03:53:47.281Z,1.90
2019-06-08T03:56:17.164Z,1.70
2019-06-08T03:58:47.873Z,1.20
2019-06-08T04:01:18.045Z,1.20
2019-06-08T04:03:47.641Z,1.20
2019-06-08T04:06:17.201Z,1.57
2019-06-08T04:08:47.391Z,1.27
2019-06-08T04:11:18.434Z,1.23
2019-06-08T04:13:48.048Z,1.60
2019-06-08T04:16:19.272Z,1.27
2019-06-08T04:18:50.249Z,1.90
2019-06-08T04:21:19.965Z,1.00
2019-06-08T04:23:50.647Z,1.30
2019-06-08T04:26:20.505Z,0.97
2019-06-08T04:28:53.723Z,1.07
2019-06-08T04:31:23.421Z,1.00
2019-06-08T04:33:59.031Z,1.20
2019-06-08T04:36:28.804Z,0.87
2019-06-08T04:38:58.457Z,0.70
2019-06-08T04:41:28.040Z,1.20
2019-06-08T04:43:57.636Z,0.93
2019-06-08T04:46:28.309Z,1.13
2019-06-08T04:48:57.899Z,1.07
2019-06-08T04:51:27.510Z,1.03
2019-06-08T04:53:57.081Z,0.90
2019-06-08T04:56:26.673Z,1.23
2019-06-08T04:58:56.278Z,0.90
2019-06-08T05:01:25.866Z,1.00
2019-06-08T05:03:55.460Z,0.93
2019-06-08T05:06:25.122Z,1.00
2019-06-08T05:08:54.733Z,1.27
2019-06-08T05:11:30.523Z,0.80
2019-06-08T05:14:00.035Z,1.00
2019-06-08T05:16:29.580Z,1.03
2019-06-08T05:18:59.178Z,1.23
2019-06-08T05:21:28.779Z,1.00
2019-06-08T05:23:59.147Z,1.40
2019-06-08T05:26:28.975Z,1.10
2019-06-08T05:28:58.561Z,1.43
2019-06-08T05:31:28.155Z,1.20
2019-06-08T05:33:57.752Z,0.93
2019-06-08T05:36:27.342Z,1.10
2019-06-08T05:38:56.946Z,1.10
2019-06-08T05:41:26.533Z,1.20
2019-06-08T05:43:56.115Z,1.00
2019-06-08T05:46:25.747Z,1.17
2019-06-08T05:48:55.309Z,1.40
2019-06-08T05:51:25.002Z,1.30
2019-06-08T05:53:54.581Z,1.20
2019-06-08T05:56:24.183Z,1.10
2019-06-08T05:58:53.761Z,1.23
2019-06-08T06:01:23.356Z,1.13
2019-06-08T06:03:52.945Z,1.20
2019-06-08T06:06:22.629Z,0.90
2019-06-08T06:08:52.228Z,1.00
2019-06-08T06:11:21.810Z,1.13
2019-06-08T06:13:51.626Z,0.90
2019-06-08T06:16:21.341Z,1.00
2019-06-08T06:18:52.189Z,1.07
2019-06-08T06:21:22.095Z,1.03
2019-06-08T06:23:51.676Z,0.93
2019-06-08T06:26:21.362Z,0.87
2019-06-08T06:28:51.847Z,1.40
2019-06-08T06:31:21.669Z,1.03
2019-06-08T06:33:52.309Z,1.13
2019-06-08T06:36:23.207Z,1.10
2019-06-08T06:38:52.789Z,1.17
2019-06-08T06:41:22.370Z,0.87
2019-06-08T06:43:52.183Z,1.20
2019-06-08T06:46:22.097Z,1.17
2019-06-08T06:48:52.566Z,1.20
2019-06-08T06:51:26.006Z,1.20
2019-06-08T06:53:55.329Z,0.83
2019-06-08T06:56:25.274Z,0.93
2019-06-08T06:58:54.953Z,1.30
2019-06-08T07:01:24.524Z,1.30
2019-06-08T07:03:54.480Z,1.30
2019-06-08T07:06:24.146Z,1.20
2019-06-08T07:08:54.581Z,1.07
2019-06-08T07:11:24.294Z,0.97
2019-06-08T07:13:57.397Z,1.40
2019-06-08T07:16:26.980Z,1.37
2019-06-08T07:18:56.635Z,1.47
2019-06-08T07:21:40.731Z,1.27
2019-06-08T07:23:58.746Z,1.70
2019-06-08T07:26:28.332Z,1.33
2019-06-08T07:28:58.983Z,1.47
2019-06-08T07:31:28.587Z,1.67
2019-06-08T07:33:59.691Z,1.23
2019-06-08T07:36:29.413Z,1.30
2019-06-08T07:38:59.654Z,1.30
2019-06-08T07:41:29.299Z,1.37
2019-06-08T07:43:58.901Z,1.37
2019-06-08T07:46:28.554Z,1.57
2019-06-08T07:48:58.639Z,1.50
2019-06-08T07:51:28.342Z,1.20
2019-06-08T07:53:58.014Z,1.10
2019-06-08T07:56:27.615Z,1.50
2019-06-08T07:58:57.298Z,1.10
2019-06-08T08:01:36.251Z,1.40
2019-06-08T08:03:59.315Z,1.37
2019-06-08T08:06:30.445Z,1.33
2019-06-08T08:09:00.096Z,1.40
2019-06-08T08:11:29.701Z,1.37
2019-06-08T08:13:59.307Z,1.60
2019-06-08T08:16:28.898Z,1.40
2019-06-08T08:18:59.699Z,1.63
2019-06-08T08:21:29.640Z,1.37
2019-06-08T08:24:01.677Z,1.30
2019-06-08T08:26:34.461Z,1.50
2019-06-08T08:29:03.533Z,1.40
2019-06-08T08:31:33.325Z,1.20
2019-06-08T08:34:05.465Z,1.50
2019-06-08T08:36:34.213Z,1.13
2019-06-08T08:39:04.851Z,1.33
2019-06-08T08:41:34.436Z,1.60
2019-06-08T08:44:04.847Z,1.37
2019-06-08T08:46:38.471Z,1.20
2019-06-08T08:49:10.341Z,1.40
2019-06-08T08:51:39.309Z,1.33
2019-06-08T08:54:08.968Z,1.57
2019-06-08T08:56:38.604Z,1.20
2019-06-08T08:59:10.779Z,1.20
2019-06-08T09:01:40.636Z,1.60
2019-06-08T09:04:10.294Z,1.70
2019-06-08T09:06:39.966Z,1.83
2019-06-08T09:09:09.533Z,1.50
2019-06-08T09:11:41.300Z,1.30
2019-06-08T09:14:13.935Z,1.40
2019-06-08T09:16:41.718Z,1.30
2019-06-08T09:19:11.382Z,1.23
2019-06-08T09:21:40.990Z,1.40
2019-06-08T09:24:10.672Z,1.13
2019-06-08T09:26:40.378Z,1.65
2019-06-08T09:29:11.182Z,1.33
2019-06-08T09:31:41.354Z,1.57
2019-06-08T09:34:15.290Z,1.40
2019-06-08T09:36:43.403Z,1.20
2019-06-08T09:39:13.577Z,1.20
2019-06-08T09:41:43.349Z,1.40
2019-06-08T09:44:13.092Z,1.47
2019-06-08T09:46:42.895Z,1.40
2019-06-08T09:49:12.499Z,1.30
2019-06-08T09:51:42.230Z,1.33
2019-06-08T09:54:13.020Z,1.40
2019-06-08T09:56:42.848Z,1.30
2019-06-08T09:59:15.119Z,1.60
2019-06-08T10:01:43.672Z,1.55
2019-06-08T10:04:13.944Z,1.37
2019-06-08T10:06:43.646Z,1.40
2019-06-08T10:09:13.349Z,1.50
2019-06-08T10:11:42.954Z,1.90
2019-06-08T10:14:12.982Z,1.45
2019-06-08T10:16:42.717Z,1.70
2019-06-08T10:19:12.290Z,1.85
2019-06-08T10:21:43.236Z,2.10
2019-06-08T10:24:13.172Z,1.67
2019-06-08T10:26:42.781Z,1.87
2019-06-08T10:29:12.352Z,1.70
2019-06-08T10:31:43.636Z,1.50
2019-06-08T10:34:13.256Z,1.67
2019-06-08T10:36:43.173Z,1.62
2019-06-08T10:39:12.760Z,1.55
2019-06-08T10:41:42.563Z,1.62
2019-06-08T10:44:14.266Z,2.00
2019-06-08T10:46:43.394Z,1.77
2019-06-08T10:49:14.282Z,2.02
2019-06-08T10:51:44.320Z,1.98
2019-06-08T10:54:13.925Z,1.50
2019-06-08T10:56:43.586Z,1.45
2019-06-08T10:59:13.268Z,1.15
2019-06-08T11:01:43.061Z,2.20
2019-06-08T11:04:12.686Z,1.55
2019-06-08T11:06:42.392Z,1.50
2019-06-08T11:09:13.301Z,1.47
2019-06-08T11:11:43.265Z,1.37
2019-06-08T11:14:13.732Z,1.20
2019-06-08T11:16:44.501Z,1.30
2019-06-08T11:19:14.279Z,1.55
2019-06-08T11:21:43.990Z,1.47
2019-06-08T11:24:23.575Z,1.65
2019-06-08T11:26:47.851Z,1.62
2019-06-08T11:29:18.743Z,1.32
2019-06-08T11:31:50.968Z,2.00
2019-06-08T11:34:21.904Z,1.52
2019-06-08T11:36:51.513Z,1.60
2019-06-08T11:39:21.576Z,1.70
2019-06-08T11:41:51.253Z,1.52
2019-06-08T11:44:21.890Z,1.25
2019-06-08T11:46:51.579Z,1.50
2019-06-08T11:49:22.224Z,1.60
2019-06-08T11:51:51.916Z,1.30
2019-06-08T11:54:36.518Z,2.05
2019-06-08T11:56:54.501Z,1.40
2019-06-08T11:59:25.046Z,1.22
2019-06-08T12:01:54.629Z,1.70
2019-06-08T12:04:24.275Z,1.67
2019-06-08T12:06:54.028Z,1.60
2019-06-08T12:09:23.605Z,1.40
2019-06-08T12:11:53.345Z,1.57
2019-06-08T12:14:22.963Z,1.82
2019-06-08T12:16:52.545Z,1.90
2019-06-08T12:19:22.232Z,1.67
2019-06-08T12:21:51.907Z,1.50
2019-06-08T12:24:21.781Z,1.70
2019-06-08T12:26:55.546Z,2.25
2019-06-08T12:29:22.632Z,1.57
2019-06-08T12:31:52.213Z,1.87
2019-06-08T12:34:21.817Z,1.65
2019-06-08T12:36:51.535Z,1.57
2019-06-08T12:39:21.544Z,1.70
2019-06-08T12:41:51.288Z,1.40
2019-06-08T12:44:22.227Z,1.70
2019-06-08T12:46:52.063Z,1.50
2019-06-08T12:49:21.714Z,1.95
2019-06-08T12:51:51.908Z,1.35
2019-06-08T12:54:21.607Z,1.57
2019-06-08T12:56:51.212Z,1.60
2019-06-08T12:59:22.902Z,1.75
2019-06-08T13:01:52.097Z,1.75
2019-06-08T13:04:23.858Z,1.40
2019-06-08T13:06:52.993Z,1.50
2019-06-08T13:09:22.599Z,1.50
2019-06-08T13:11:52.260Z,1.50
2019-06-08T13:14:21.873Z,1.60
2019-06-08T13:16:53.121Z,1.30
2019-06-08T13:19:22.890Z,1.57
2019-06-08T13:21:52.493Z,1.70
2019-06-08T13:24:22.243Z,1.60
2019-06-08T13:26:51.820Z,1.62
2019-06-08T13:29:22.188Z,1.47
2019-06-08T13:31:52.257Z,1.42
2019-06-08T13:34:24.135Z,1.37
2019-06-08T13:36:53.157Z,1.62
2019-06-08T13:39:23.254Z,1.47
2019-06-08T13:41:52.935Z,1.40
2019-06-08T13:44:22.580Z,1.30
2019-06-08T13:46:52.349Z,1.42
2019-06-08T13:49:26.639Z,2.05
2019-06-08T13:51:53.189Z,1.40
2019-06-08T13:54:24.244Z,2.08
2019-06-08T13:56:53.980Z,1.80
2019-06-08T13:59:27.386Z,1.92
2019-06-08T14:01:54.863Z,1.75
2019-06-08T14:04:25.250Z,1.82
2019-06-08T14:06:54.934Z,1.75
2019-06-08T14:09:25.013Z,1.67
2019-06-08T14:11:54.673Z,1.70
2019-06-08T14:14:25.614Z,1.50
2019-06-08T14:16:58.443Z,1.80
2019-06-08T14:19:30.515Z,1.67
2019-06-08T14:21:58.201Z,1.80
2019-06-08T14:24:33.848Z,1.52
2019-06-08T14:26:59.042Z,1.80
2019-06-08T14:29:29.293Z,1.70
2019-06-08T14:31:59.950Z,1.95
2019-06-08T14:34:31.241Z,1.60
2019-06-08T14:37:00.930Z,1.70
2019-06-08T14:39:31.779Z,1.27
2019-06-08T14:42:01.671Z,1.32
2019-06-08T14:44:32.080Z,1.15
2019-06-08T14:47:05.377Z,1.25
2019-06-08T14:49:35.318Z,1.55
2019-06-08T14:52:05.038Z,1.40
2019-06-08T14:54:35.304Z,1.77
2019-06-08T14:57:04.981Z,1.50
2019-06-08T14:59:34.601Z,1.42
2019-06-08T15:02:04.347Z,1.17
2019-06-08T15:04:36.653Z,1.17
2019-06-08T15:07:05.369Z,1.45
2019-06-08T15:09:37.418Z,1.22
2019-06-08T15:12:09.395Z,1.30
2019-06-08T15:14:38.702Z,1.30
2019-06-08T15:17:08.714Z,1.32
2019-06-08T15:19:38.445Z,1.70
2019-06-08T15:22:08.798Z,2.10
2019-06-08T15:24:39.403Z,1.60
2019-06-08T15:27:09.000Z,1.80
2019-06-08T15:29:38.608Z,1.70
2019-06-08T15:32:08.347Z,1.60
2019-06-08T15:34:38.397Z,1.52
2019-06-08T15:37:09.165Z,1.70
2019-06-08T15:39:39.157Z,1.50
2019-06-08T15:42:08.829Z,1.52
2019-06-08T15:44:38.561Z,1.60
2019-06-08T15:47:08.380Z,1.65
2019-06-08T15:49:39.482Z,1.57
2019-06-08T15:52:09.282Z,1.50
2019-06-08T15:54:40.978Z,1.70
2019-06-08T15:57:10.183Z,1.52
2019-06-08T15:59:41.880Z,1.30
2019-06-08T16:02:12.065Z,1.52
2019-06-08T16:04:41.650Z,1.60
2019-06-08T16:07:11.373Z,1.67
2019-06-08T16:09:40.959Z,1.32
2019-06-08T16:12:10.537Z,1.42
2019-06-08T16:14:41.518Z,1.52
2019-06-08T16:17:11.477Z,1.47
2019-06-08T16:19:41.160Z,1.47
2019-06-08T16:22:10.758Z,1.47
2019-06-08T16:24:40.409Z,1.55
2019-06-08T16:27:10.181Z,1.55
2019-06-08T16:29:39.761Z,1.75
2019-06-08T16:32:10.453Z,1.50
2019-06-08T16:34:40.030Z,1.50
2019-06-08T16:37:10.718Z,1.55
2019-06-08T16:39:40.298Z,1.65
2019-06-08T16:42:09.904Z,1.42
2019-06-08T16:44:39.632Z,1.40
2019-06-08T16:47:09.221Z,1.32
2019-06-08T16:49:39.644Z,1.55
2019-06-08T16:52:09.327Z,1.40
2019-06-08T16:54:39.084Z,1.50
2019-06-08T16:57:11.042Z,1.45
2019-06-08T16:59:40.941Z,1.47
2019-06-08T17:02:10.537Z,1.40
2019-06-08T17:04:40.296Z,1.82
2019-06-08T17:07:09.910Z,1.67
2019-06-08T17:09:40.055Z,1.60
2019-06-08T17:12:09.879Z,1.50
2019-06-08T17:14:40.696Z,1.85
2019-06-08T17:17:10.456Z,1.85
2019-06-08T17:19:41.195Z,1.70
2019-06-08T17:22:10.873Z,1.30
2019-06-08T17:24:40.822Z,1.70
2019-06-08T17:27:25.742Z,1.72
2019-06-08T17:29:41.925Z,1.67
2019-06-08T17:32:11.582Z,1.80
2019-06-08T17:34:42.458Z,1.50
2019-06-08T17:37:13.357Z,1.52
2019-06-08T17:39:42.967Z,1.77
2019-06-08T17:42:12.643Z,1.80
2019-06-08T17:44:42.649Z,2.00
2019-06-08T17:47:12.304Z,1.82
2019-06-08T17:49:43.454Z,1.80
2019-06-08T17:52:13.093Z,1.62
2019-06-08T17:54:43.290Z,1.80
2019-06-08T17:57:15.062Z,1.25
2019-06-08T17:59:45.489Z,1.60
2019-06-08T18:02:22.130Z,1.67
2019-06-08T18:04:48.550Z,1.87
2019-06-08T18:07:17.810Z,1.72
2019-06-08T18:09:48.565Z,1.60
2019-06-08T18:12:19.372Z,1.92
2019-06-08T18:14:48.963Z,1.60
2019-06-08T18:17:18.636Z,1.67
2019-06-08T18:19:49.643Z,1.67
2019-06-08T18:22:19.991Z,1.57
2019-06-08T18:24:50.564Z,1.60
2019-06-08T18:27:20.137Z,1.40
2019-06-08T18:29:49.831Z,1.37
2019-06-08T18:32:19.474Z,1.40
2019-06-08T18:34:49.096Z,1.37
2019-06-08T18:37:18.685Z,1.12
2019-06-08T18:39:49.458Z,1.47
2019-06-08T18:42:20.730Z,1.35
2019-06-08T18:44:50.351Z,1.70
2019-06-08T18:47:19.957Z,1.52
2019-06-08T18:49:49.526Z,1.57
2019-06-08T18:52:19.217Z,1.62
2019-06-08T18:54:49.589Z,1.77
2019-06-08T18:57:19.501Z,1.50
2019-06-08T18:59:52.937Z,2.20
2019-06-08T19:02:20.447Z,1.75
2019-06-08T19:04:50.094Z,1.60
2019-06-08T19:07:19.823Z,1.87
2019-06-08T19:09:50.999Z,2.27
2019-06-08T19:12:20.643Z,2.83
2019-06-08T19:14:52.332Z,5.25
2019-06-08T19:17:22.010Z,4.97
2019-06-08T19:19:52.290Z,5.20
2019-06-08T19:22:23.176Z,6.35
2019-06-08T19:24:52.857Z,4.67
2019-06-08T19:27:23.588Z,5.10
2019-06-08T19:29:53.255Z,5.90
2019-06-08T19:32:23.020Z,6.40
2019-06-08T19:34:54.709Z,5.90
2019-06-08T19:37:23.949Z,6.37
2019-06-08T19:39:53.514Z,5.95
2019-06-08T19:42:35.746Z,5.72
2019-06-08T19:45:02.631Z,5.65
2019-06-08T19:47:27.594Z,4.15
2019-06-08T19:49:57.796Z,4.92
2019-06-08T19:52:28.499Z,6.78
2019-06-08T19:54:58.216Z,4.63
2019-06-08T19:57:28.344Z,4.50
2019-06-08T20:00:00.452Z,3.43
2019-06-08T20:02:29.616Z,4.47
2019-06-08T20:04:59.246Z,3.25
2019-06-08T20:07:28.853Z,4.03
2019-06-08T20:09:58.696Z,3.37
2019-06-08T20:12:29.338Z,3.00
2019-06-08T20:14:59.842Z,3.40
2019-06-08T20:17:29.497Z,4.10
2019-06-08T20:20:00.077Z,3.00
2019-06-08T20:22:31.471Z,2.80
2019-06-08T20:25:02.511Z,3.03
2019-06-08T20:27:37.225Z,2.40
2019-06-08T20:30:11.285Z,2.67
2019-06-08T20:32:38.633Z,2.60
2019-06-08T20:35:08.450Z,3.03
2019-06-08T20:37:38.166Z,2.60
2019-06-08T20:40:13.527Z,2.67
2019-06-08T20:42:39.177Z,2.53
2019-06-08T20:45:09.111Z,2.10
2019-06-08T20:47:39.223Z,2.10
2019-06-08T20:50:08.853Z,2.83
2019-06-08T20:52:38.466Z,3.00
2019-06-08T20:55:08.478Z,2.63
2019-06-08T20:57:38.073Z,2.17
2019-06-08T21:00:11.612Z,2.17
2019-06-08T21:02:39.950Z,1.80
2019-06-08T21:05:09.650Z,2.03
2019-06-08T21:07:39.338Z,2.00
2019-06-08T21:10:09.039Z,2.03
2019-06-08T21:12:38.735Z,1.83
2019-06-08T21:15:08.498Z,1.87
2019-06-08T21:17:38.475Z,1.60
2019-06-08T21:20:08.622Z,1.83
2019-06-08T21:22:39.310Z,1.80
2019-06-08T21:25:09.019Z,1.43
2019-06-08T21:27:38.684Z,1.53
2019-06-08T21:30:20.424Z,1.93
2019-06-08T21:32:40.076Z,1.67
2019-06-08T21:35:09.695Z,1.60
2019-06-08T21:37:39.297Z,1.60
2019-06-08T21:40:08.955Z,1.83
2019-06-08T21:42:38.521Z,1.73
2019-06-08T21:45:09.712Z,1.40
2019-06-08T21:47:39.439Z,1.60
2019-06-08T21:50:09.171Z,1.90
2019-06-08T21:52:38.754Z,1.77
2019-06-08T21:55:08.998Z,1.90
2019-06-08T21:57:38.584Z,1.50
2019-06-08T22:00:34.667Z,1.90
2019-06-08T22:02:43.466Z,1.47
2019-06-08T22:05:13.283Z,1.90
2019-06-08T22:07:42.845Z,1.53
2019-06-08T22:10:12.675Z,1.60
2019-06-08T22:12:42.268Z,1.67
2019-06-08T22:15:11.999Z,1.30
2019-06-08T22:17:41.642Z,1.53
2019-06-08T22:20:11.316Z,2.70
2019-06-08T22:22:41.009Z,1.73
2019-06-08T22:25:10.663Z,1.53
2019-06-08T22:27:40.331Z,1.60
2019-06-08T22:30:18.393Z,1.90
2019-06-08T22:32:41.488Z,1.53
2019-06-08T22:35:11.150Z,1.93
2019-06-08T22:37:40.764Z,1.77
2019-06-08T22:40:10.586Z,1.90
2019-06-08T22:42:40.161Z,1.60
2019-06-08T22:45:09.997Z,1.40
2019-06-08T22:47:39.629Z,1.60
2019-06-08T22:50:09.667Z,1.50
2019-06-08T22:52:39.236Z,1.47
2019-06-08T22:55:10.971Z,1.70
2019-06-08T22:57:40.178Z,2.00
2019-06-08T23:00:16.587Z,1.50
2019-06-08T23:02:42.143Z,1.60
2019-06-08T23:05:11.875Z,1.93
2019-06-08T23:07:42.464Z,2.00
2019-06-08T23:10:12.414Z,1.70
2019-06-08T23:12:42.065Z,1.90
2019-06-08T23:15:11.877Z,1.47
2019-06-08T23:17:41.538Z,1.53
2019-06-08T23:20:11.560Z,1.50
2019-06-08T23:22:41.190Z,1.60
2019-06-08T23:25:11.625Z,1.80
2019-06-08T23:27:41.182Z,1.50
2019-06-08T23:30:12.151Z,1.70
2019-06-08T23:32:41.744Z,1.57
2019-06-08T23:35:11.568Z,1.50
2019-06-08T23:37:42.114Z,1.50
2019-06-08T23:40:12.108Z,1.50
2019-06-08T23:42:41.710Z,1.50
2019-06-08T23:45:11.532Z,1.30
2019-06-08T23:47:41.098Z,1.37
2019-06-08T23:50:11.651Z,1.43
2019-06-08T23:52:41.468Z,1.20
2019-06-08T23:55:12.185Z,1.47
2019-06-08T23:57:41.740Z,1.57
